Time;durP1;ratioP1;P1;durP2;ratioP2;P2;SDS_P1;SDS_P2;PMS_P1;PMS_P2;Temp;Humidity;BMP_temperature;BMP_pressure;BME280_temperature;BME280_humidity;BME280_pressure;Samples;Min_cycle;Max_cycle;Signal;HPM_P1;HPM_P2
2023/05/22 00:02:27;;;;;;;20.35;18.20;;;;;;;16.87;100.00;101598.06;4860308;29;20061;-76
2023/05/22 00:04:57;;;;;;;19.70;17.02;;;;;;;16.88;100.00;101597.19;4857794;29;20499;-76
2023/05/22 00:07:26;;;;;;;20.65;16.27;;;;;;;16.90;100.00;101605.13;4864692;29;20045;-76
2023/05/22 00:09:53;;;;;;;19.38;17.08;;;;;;;16.90;100.00;101602.47;4863053;29;20056;-76
2023/05/22 00:12:21;;;;;;;17.75;15.52;;;;;;;16.90;100.00;101599.81;4855229;29;20057;-76
2023/05/22 00:14:49;;;;;;;18.10;16.17;;;;;;;16.90;100.00;101597.16;4837068;29;20056;-76
2023/05/22 00:17:17;;;;;;;18.73;16.20;;;;;;;16.91;100.00;101598.91;4856530;29;20139;-76
2023/05/22 00:19:45;;;;;;;20.83;16.52;;;;;;;16.91;100.00;101597.13;4855040;29;20423;-75
2023/05/22 00:22:12;;;;;;;21.85;16.42;;;;;;;16.93;100.00;101597.13;4866854;29;20859;-76
2023/05/22 00:24:39;;;;;;;18.48;15.57;;;;;;;16.93;100.00;101591.81;4880991;29;20445;-76
2023/05/22 00:27:07;;;;;;;19.55;16.63;;;;;;;16.93;100.00;101586.47;4869780;29;20059;-75
2023/05/22 00:29:34;;;;;;;20.48;16.17;;;;;;;16.93;100.00;101589.13;4888507;29;20641;-76
2023/05/22 00:32:02;;;;;;;20.00;16.65;;;;;;;16.93;100.00;101584.69;4830232;29;20052;-76
2023/05/22 00:34:30;;;;;;;17.80;15.90;;;;;;;16.93;100.00;101573.16;4846419;29;20045;-76
2023/05/22 00:36:58;;;;;;;18.55;16.63;;;;;;;16.92;100.00;101576.75;4860745;29;20048;-76
2023/05/22 00:39:25;;;;;;;18.15;15.50;;;;;;;16.92;100.00;101566.09;4879859;29;20048;-76
2023/05/22 00:41:53;;;;;;;18.27;15.15;;;;;;;16.92;100.00;101574.94;4869003;29;20053;-76
2023/05/22 00:44:21;;;;;;;22.67;15.18;;;;;;;16.92;100.00;101571.41;4875734;29;20067;-76
2023/05/22 00:46:49;;;;;;;17.30;15.23;;;;;;;16.91;100.00;101559.00;4826607;29;20057;-76
2023/05/22 00:49:17;;;;;;;17.38;15.55;;;;;;;16.91;100.00;101561.66;4855051;29;20067;-76
2023/05/22 00:51:46;;;;;;;18.92;15.60;;;;;;;16.90;100.00;101557.22;4867563;29;20040;-76
2023/05/22 00:54:14;;;;;;;17.10;14.80;;;;;;;16.90;100.00;101554.56;4841881;29;20053;-76
2023/05/22 00:56:42;;;;;;;17.60;15.73;;;;;;;16.90;100.00;101546.56;4862474;29;20049;-75
2023/05/22 00:59:10;;;;;;;20.63;16.23;;;;;;;16.89;100.00;101551.00;4852400;29;20053;-76
2023/05/22 01:01:40;;;;;;;19.17;16.10;;;;;;;16.90;100.00;101549.22;4887206;29;20439;-76
2023/05/22 01:04:10;;;;;;;16.60;14.80;;;;;;;16.90;100.00;101546.56;4823270;29;20566;-77
2023/05/22 01:06:40;;;;;;;17.33;15.52;;;;;;;16.91;100.00;101548.34;4864445;29;20053;-76
2023/05/22 01:09:07;;;;;;;20.55;14.35;;;;;;;16.91;100.00;101530.59;4828991;29;20052;-77
2023/05/22 01:11:44;;;;;;;18.55;15.70;;;;;;;16.92;100.00;101540.34;4853255;29;20048;-77
2023/05/22 01:14:38;;;;;;;17.15;14.75;;;;;;;16.92;100.00;101535.03;4870754;29;20059;-77
2023/05/22 01:17:23;;;;;;;17.58;14.70;;;;;;;16.93;100.00;101530.56;4881756;29;20064;-75
2023/05/22 01:20:09;;;;;;;16.02;14.32;;;;;;;16.91;100.00;101522.59;4813429;29;20052;-77
2023/05/22 01:23:03;;;;;;;19.30;15.50;;;;;;;16.91;100.00;101517.28;4884464;29;20056;-77
2023/05/22 01:25:38;;;;;;;16.83;14.25;;;;;;;16.91;100.00;101521.72;4857511;29;20060;-77
2023/05/22 01:28:37;;;;;;;14.93;13.27;;;;;;;16.92;100.00;101526.16;4841809;29;20053;-75
2023/05/22 01:31:09;;;;;;;17.05;14.43;;;;;;;16.90;100.00;101525.28;4877158;29;20048;-77
2023/05/22 01:33:59;;;;;;;16.00;14.40;;;;;;;16.89;100.00;101526.19;4870171;29;20051;-77
2023/05/22 01:36:30;;;;;;;15.88;12.93;;;;;;;16.87;100.00;101517.34;4856046;29;20057;-77
2023/05/22 01:39:00;;;;;;;16.30;13.55;;;;;;;16.87;100.00;101525.31;4856508;29;20040;-77
2023/05/22 01:41:34;;;;;;;19.58;14.27;;;;;;;16.87;100.00;101538.63;4868463;29;20052;-77
2023/05/22 01:44:02;;;;;;;15.82;13.75;;;;;;;16.83;100.00;101537.78;4852815;29;20049;-77
2023/05/22 01:46:30;;;;;;;15.75;14.15;;;;;;;16.83;100.00;101528.94;4866072;29;20056;-77
2023/05/22 01:48:58;;;;;;;16.15;13.00;;;;;;;16.80;100.00;101528.91;4870237;29;20422;-77
2023/05/22 01:51:42;;;;;;;16.45;13.90;;;;;;;16.79;100.00;101527.19;4802029;29;20056;-77
2023/05/22 01:54:17;;;;;;;16.40;13.80;;;;;;;16.77;100.00;101532.50;4861925;29;20045;-75
2023/05/22 01:56:54;;;;;;;18.65;14.20;;;;;;;16.75;100.00;101534.31;4860416;29;20067;-75
2023/05/22 01:59:38;;;;;;;16.15;13.90;;;;;;;16.74;100.00;101546.72;4866641;29;20049;-76
2023/05/22 02:02:10;;;;;;;15.15;13.55;;;;;;;16.74;100.00;101540.53;4850073;29;20049;-76
2023/05/22 02:04:43;;;;;;;15.13;13.45;;;;;;;16.73;100.00;101544.97;4870365;29;20083;-76
2023/05/22 02:07:15;;;;;;;15.80;12.98;;;;;;;16.72;100.00;101545.84;4823176;29;20080;-76
2023/05/22 02:09:45;;;;;;;16.92;15.00;;;;;;;16.71;100.00;101540.53;4868829;29;20049;-76
2023/05/22 02:12:13;;;;;;;18.20;14.87;;;;;;;16.70;100.00;101542.34;4866252;29;20457;-77
2023/05/22 02:14:42;;;;;;;16.95;14.50;;;;;;;16.68;100.00;101540.59;4860228;29;20056;-77
2023/05/22 02:17:10;;;;;;;16.80;14.10;;;;;;;16.66;100.00;101545.94;4859045;29;20515;-77
2023/05/22 02:19:37;;;;;;;19.77;17.15;;;;;;;16.64;100.00;101545.06;4876088;29;20048;-77
2023/05/22 02:22:05;;;;;;;21.52;16.63;;;;;;;16.62;100.00;101538.88;4830607;29;20057;-77
2023/05/22 02:24:36;;;;;;;20.23;16.92;;;;;;;16.60;100.00;101526.47;4863324;29;20506;-77
2023/05/22 02:27:03;;;;;;;19.55;16.13;;;;;;;16.57;100.00;101532.72;4841938;29;20543;-76
2023/05/22 02:29:31;;;;;;;26.88;19.52;;;;;;;16.54;100.00;101525.66;4866250;29;20067;-77
2023/05/22 02:31:58;;;;;;;19.48;17.35;;;;;;;16.52;100.00;101526.56;4878002;29;20060;-77
2023/05/22 02:34:25;;;;;;;20.00;16.70;;;;;;;16.49;100.00;101516.84;4875276;29;20045;-77
2023/05/22 02:36:53;;;;;;;18.30;15.85;;;;;;;16.47;100.00;101521.31;4888625;29;20048;-77
2023/05/22 02:39:21;;;;;;;19.15;16.08;;;;;;;16.46;100.00;101519.53;4818712;29;20053;-76
2023/05/22 02:41:48;;;;;;;16.92;14.93;;;;;;;16.46;100.00;101518.66;4867073;29;20056;-77
2023/05/22 02:44:15;;;;;;;18.85;16.95;;;;;;;16.44;100.00;101516.00;4851076;29;20053;-77
2023/05/22 02:46:43;;;;;;;19.52;16.17;;;;;;;16.44;100.00;101513.34;4848978;29;20148;-76
2023/05/22 02:49:10;;;;;;;21.50;17.55;;;;;;;16.43;100.00;101508.94;4869943;29;20045;-77
2023/05/22 02:51:38;;;;;;;18.75;16.63;;;;;;;16.43;100.00;101519.56;4859962;29;20044;-76
2023/05/22 02:54:05;;;;;;;23.35;17.83;;;;;;;16.44;100.00;101515.13;4822792;29;20091;-77
2023/05/22 02:56:32;;;;;;;19.73;17.63;;;;;;;16.43;100.00;101505.41;4846011;29;20722;-77
2023/05/22 02:59:00;;;;;;;22.05;18.10;;;;;;;16.42;100.00;101511.59;4862222;29;20052;-76
2023/05/22 03:01:29;;;;;;;20.98;16.35;;;;;;;16.40;100.00;101508.09;4858823;29;20162;-76
2023/05/22 03:03:57;;;;;;;22.02;17.98;;;;;;;16.38;100.00;101511.63;4858278;29;20059;-76
2023/05/22 03:06:24;;;;;;;20.15;17.65;;;;;;;16.36;100.00;101507.22;4874149;29;20060;-77
2023/05/22 03:08:52;;;;;;;24.00;19.38;;;;;;;16.32;100.00;101501.06;4832613;29;20045;-77
2023/05/22 03:11:20;;;;;;;21.98;18.23;;;;;;;16.30;100.00;101497.53;4853281;29;20068;-76
2023/05/22 03:13:47;;;;;;;25.63;19.60;;;;;;;16.28;100.00;101498.47;4859089;29;20064;-76
2023/05/22 03:16:15;;;;;;;24.65;18.70;;;;;;;16.24;100.00;101502.03;4850230;29;20384;-77
2023/05/22 03:18:45;;;;;;;22.98;20.20;;;;;;;16.21;100.00;101494.09;4871328;29;20049;-76
2023/05/22 03:21:13;;;;;;;22.83;19.30;;;;;;;16.18;100.00;101489.66;4865486;29;20053;-77
2023/05/22 03:23:40;;;;;;;24.88;19.90;;;;;;;16.16;100.00;101488.81;4875816;29;20068;-77
2023/05/22 03:26:07;;;;;;;20.27;18.17;;;;;;;16.14;100.00;101495.91;4816545;29;20079;-76
2023/05/22 03:28:37;;;;;;;24.83;20.42;;;;;;;16.13;100.00;101496.81;4873337;29;20049;-76
2023/05/22 03:31:08;;;;;;;24.17;20.02;;;;;;;16.10;100.00;101500.38;4860371;29;20121;-76
2023/05/22 03:33:48;;;;;;;24.65;19.17;;;;;;;16.08;100.00;101490.66;4848131;29;20083;-76
2023/05/22 03:36:15;;;;;;;22.92;19.85;;;;;;;16.05;100.00;101486.28;4866636;29;20055;-76
2023/05/22 03:38:43;;;;;;;23.73;20.88;;;;;;;16.00;100.00;101495.19;4832962;29;20068;-76
2023/05/22 03:41:10;;;;;;;27.70;21.70;;;;;;;15.93;100.00;101487.22;4825339;29;20514;-77
2023/05/22 03:43:37;;;;;;;25.50;20.63;;;;;;;15.88;100.00;101499.72;4867807;29;20104;-76
2023/05/22 03:46:05;;;;;;;23.40;20.83;;;;;;;15.79;100.00;101497.13;4857432;29;20454;-76
2023/05/22 03:48:33;;;;;;;31.52;22.48;;;;;;;15.73;100.00;101498.06;4858075;29;20049;-76
2023/05/22 03:51:00;;;;;;;32.20;22.70;;;;;;;15.65;100.00;101499.88;4860534;29;20066;-76
2023/05/22 03:53:29;;;;;;;28.10;21.45;;;;;;;15.58;100.00;101501.66;4874943;29;20057;-76
2023/05/22 03:55:58;;;;;;;28.05;21.45;;;;;;;15.54;100.00;101507.03;4789005;29;20052;-76
2023/05/22 03:58:25;;;;;;;33.75;23.98;;;;;;;15.48;100.00;101510.59;4847529;29;20053;-76
2023/05/22 04:00:57;;;;;;;27.13;22.52;;;;;;;15.46;100.00;101506.19;4869424;29;20057;-76
2023/05/22 04:03:28;;;;;;;27.35;23.00;;;;;;;15.43;100.00;101504.44;4824051;29;20060;-76
2023/05/22 04:05:57;;;;;;;27.60;21.10;;;;;;;15.44;100.00;101516.81;4872985;29;20517;-76
2023/05/22 04:08:24;;;;;;;34.42;25.38;;;;;;;15.42;100.00;101515.94;4856753;29;20048;-77
2023/05/22 04:10:53;;;;;;;29.50;22.90;;;;;;;15.39;100.00;101514.19;4876015;29;20060;-75
2023/05/22 04:13:20;;;;;;;26.95;21.75;;;;;;;15.40;100.00;101523.03;4816346;29;20053;-76
2023/05/22 04:15:48;;;;;;;26.77;23.02;;;;;;;15.42;100.00;101518.59;4874229;29;20045;-77
2023/05/22 04:18:16;;;;;;;23.85;19.77;;;;;;;15.43;100.00;101519.50;4845744;29;20064;-75
2023/05/22 04:20:43;;;;;;;27.63;21.80;;;;;;;15.43;100.00;101524.81;4875585;29;20052;-75
2023/05/22 04:23:12;;;;;;;23.40;19.55;;;;;;;15.44;100.00;101521.25;4844617;29;20068;-74
2023/05/22 04:25:39;;;;;;;27.13;19.80;;;;;;;15.44;100.00;101526.56;4856398;29;20618;-75
2023/05/22 04:28:08;;;;;;;26.48;19.50;;;;;;;15.47;100.00;101514.13;4813253;29;20061;-75
2023/05/22 04:30:36;;;;;;;22.33;19.50;;;;;;;15.47;100.00;101524.75;4872742;29;20079;-75
2023/05/22 04:33:04;;;;;;;26.13;20.30;;;;;;;15.49;100.00;101528.28;4868035;29;20068;-75
2023/05/22 04:35:33;;;;;;;24.35;20.30;;;;;;;15.51;100.00;101531.81;4861410;29;20049;-76
2023/05/22 04:38:05;;;;;;;24.45;18.48;;;;;;;15.53;100.00;101532.69;4857959;29;20522;-75
2023/05/22 04:40:33;;;;;;;22.08;17.25;;;;;;;15.54;100.00;101518.53;4823508;29;20444;-77
2023/05/22 04:43:00;;;;;;;22.70;16.85;;;;;;;15.57;100.00;101517.59;4809719;29;20049;-77
2023/05/22 04:45:30;;;;;;;22.33;16.95;;;;;;;15.60;100.00;101517.59;4845802;29;20065;-77
2023/05/22 04:48:01;;;;;;;22.70;16.90;;;;;;;15.62;100.00;101517.59;4860145;29;20052;-76
2023/05/22 04:50:34;;;;;;;17.92;16.00;;;;;;;15.63;100.00;101514.91;4846607;29;20060;-77
2023/05/22 04:53:04;;;;;;;21.73;16.48;;;;;;;15.64;100.00;101524.66;4858708;29;20072;-77
2023/05/22 04:55:35;;;;;;;18.30;16.42;;;;;;;15.65;100.00;101522.88;4850044;29;20040;-77
2023/05/22 04:58:04;;;;;;;17.00;15.23;;;;;;;15.67;100.00;101515.75;4846888;29;20044;-77
2023/05/22 05:00:32;;;;;;;20.73;15.50;;;;;;;15.68;100.00;101513.09;4845339;29;20528;-77
2023/05/22 05:02:59;;;;;;;17.95;15.55;;;;;;;15.68;100.00;101520.19;4855453;29;20151;-75
2023/05/22 05:05:27;;;;;;;21.02;15.55;;;;;;;15.72;100.00;101528.13;4838527;29;20557;-76
2023/05/22 05:07:55;;;;;;;20.67;14.85;;;;;;;15.73;100.00;101532.59;4858561;29;20550;-76
2023/05/22 05:10:23;;;;;;;18.77;14.43;;;;;;;15.75;100.00;101525.50;4854903;29;20056;-75
2023/05/22 05:12:51;;;;;;;16.73;14.60;;;;;;;15.78;100.00;101529.88;4859665;29;20059;-77
2023/05/22 05:15:21;;;;;;;20.98;15.75;;;;;;;15.78;100.00;101540.53;4799219;29;20067;-77
2023/05/22 05:17:49;;;;;;;19.63;14.43;;;;;;;15.77;100.00;101544.97;4844702;29;20052;-77
2023/05/22 05:20:17;;;;;;;19.50;14.65;;;;;;;15.76;100.00;101534.34;4847349;29;20049;-77
2023/05/22 05:22:45;;;;;;;23.02;14.45;;;;;;;15.78;100.00;101551.16;4857564;29;20048;-77
2023/05/22 05:25:14;;;;;;;19.67;13.55;;;;;;;15.77;100.00;101566.22;4864966;29;20056;-75
2023/05/22 05:27:42;;;;;;;18.80;13.48;;;;;;;15.76;100.00;101566.22;4857903;29;20052;-75
2023/05/22 05:30:10;;;;;;;17.90;15.10;;;;;;;15.76;100.00;101563.56;4817500;29;20395;-75
2023/05/22 05:32:54;;;;;;;20.60;13.93;;;;;;;15.78;100.00;101573.31;4854650;29;20056;-77
2023/05/22 05:35:35;;;;;;;16.92;13.57;;;;;;;15.81;100.00;101567.09;4852047;29;20064;-77
2023/05/22 05:38:07;;;;;;;15.45;12.88;;;;;;;15.83;100.00;101557.31;4849433;29;20057;-75
2023/05/22 05:40:37;;;;;;;19.17;12.63;;;;;;;15.85;100.00;101547.56;4853155;29;20052;-77
2023/05/22 05:43:07;;;;;;;14.20;12.40;;;;;;;15.89;100.00;101551.06;4867080;29;20055;-77
2023/05/22 05:45:35;;;;;;;18.70;13.32;;;;;;;15.94;100.00;101541.31;4816080;29;20498;-76
2023/05/22 05:48:03;;;;;;;16.83;12.23;;;;;;;15.99;100.00;101539.47;4860773;29;20475;-77
2023/05/22 05:50:33;;;;;;;17.15;13.30;;;;;;;16.04;100.00;101539.44;4874431;29;20081;-76
2023/05/22 05:53:01;;;;;;;16.90;12.50;;;;;;;16.09;100.00;101542.94;4864097;29;20052;-77
2023/05/22 05:55:28;;;;;;;14.35;11.68;;;;;;;16.14;100.00;101551.75;4821844;29;20519;-76
2023/05/22 05:57:56;;;;;;;14.77;11.68;;;;;;;16.18;100.00;101546.41;4872204;29;20056;-76
2023/05/22 06:00:35;;;;;;;15.32;11.63;;;;;;;16.21;100.00;101547.28;4821488;29;20064;-76
2023/05/22 06:03:03;;;;;;;11.98;10.27;;;;;;;16.25;100.00;101551.66;4856281;29;20060;-76
2023/05/22 06:05:50;;;;;;;12.35;10.80;;;;;;;16.34;100.00;101563.09;4871541;29;20068;-76
2023/05/22 06:08:45;;;;;;;12.45;10.63;;;;;;;16.39;100.00;101552.44;4866202;29;20049;-76
2023/05/22 06:11:12;;;;;;;14.18;10.18;;;;;;;16.44;100.00;101561.22;4834702;29;20566;-75
2023/05/22 06:13:52;;;;;;;19.60;10.70;;;;;;;16.46;100.00;101559.44;4882309;29;20060;-77
2023/05/22 06:16:19;;;;;;;13.77;10.23;;;;;;;16.47;100.00;101545.25;4828678;29;20297;-75
2023/05/22 06:18:48;;;;;;;13.80;10.35;;;;;;;16.49;100.00;101550.56;4846785;29;20052;-77
2023/05/22 06:21:16;;;;;;;12.20;9.20;;;;;;;16.50;100.00;101541.66;4867818;29;20067;-75
2023/05/22 06:23:44;;;;;;;15.57;9.93;;;;;;;16.51;100.00;101539.00;4867687;29;20041;-77
2023/05/22 06:26:11;;;;;;;14.32;10.85;;;;;;;16.54;100.00;101544.28;4860663;29;20079;-77
2023/05/22 06:28:40;;;;;;;17.60;9.90;;;;;;;16.53;100.00;101539.84;4855815;29;20430;-75
2023/05/22 06:31:08;;;;;;;17.17;11.40;;;;;;;16.53;100.00;101545.16;4826046;29;20041;-76
2023/05/22 06:33:39;;;;;;;14.65;9.77;;;;;;;16.52;100.00;101538.09;4860902;29;20053;-75
2023/05/22 06:36:07;;;;;;;14.27;9.90;;;;;;;16.52;100.00;101539.88;4859770;29;20559;-77
2023/05/22 06:38:36;;;;;;;16.20;9.52;;;;;;;16.51;100.00;101543.44;4858288;29;20064;-76
2023/05/22 06:41:07;;;;;;;12.23;9.85;;;;;;;16.51;100.00;101543.44;4841358;29;20423;-76
2023/05/22 06:43:35;;;;;;;14.90;10.38;;;;;;;16.54;100.00;101559.34;4857204;29;20043;-76
2023/05/22 06:46:10;;;;;;;16.48;10.52;;;;;;;16.55;100.00;101562.00;4825800;29;20063;-76
2023/05/22 06:48:58;;;;;;;17.83;10.18;;;;;;;16.52;100.00;101575.34;4864979;29;20060;-76
2023/05/22 06:51:35;;;;;;;17.50;8.50;;;;;;;16.50;100.00;101585.13;4860246;29;20052;-75
2023/05/22 06:54:07;;;;;;;14.95;7.53;;;;;;;16.48;100.00;101586.03;4830173;29;20068;-76
2023/05/22 06:56:36;;;;;;;20.80;8.65;;;;;;;16.44;100.00;101586.94;4856050;29;20057;-76
2023/05/22 06:59:06;;;;;;;;;;;;;;;16.41;100.00;101592.28;4855524;29;20048;-77
2023/05/22 07:02:03;;;;;;;13.48;7.57;;;;;;;16.34;100.00;101595.00;4794042;29;19933;-74
2023/05/22 07:05:06;;;;;;;16.92;7.30;;;;;;;16.29;100.00;101595.94;4800961;29;20064;-77
2023/05/22 07:07:48;;;;;;;23.23;7.55;;;;;;;16.25;100.00;101599.53;4863374;29;20055;-77
2023/05/22 07:10:16;;;;;;;22.67;8.20;;;;;;;16.20;100.00;101606.66;4861027;29;20052;-77
2023/05/22 07:12:45;;;;;;;19.05;8.20;;;;;;;16.15;100.00;101614.69;4867304;29;20803;-77
2023/05/22 07:15:13;;;;;;;25.80;7.97;;;;;;;16.09;100.00;101615.59;4822044;29;20502;-77
2023/05/22 07:17:46;;;;;;;19.20;8.25;;;;;;;16.04;100.00;101609.44;4833323;29;22167;-76
2023/05/22 07:20:14;;;;;;;16.92;7.78;;;;;;;16.02;100.00;101607.69;4845166;29;20064;-76
2023/05/22 07:22:48;;;;;;;24.77;8.57;;;;;;;15.95;100.00;101613.06;4849405;29;20703;-76
2023/05/22 07:25:15;;;;;;;18.35;8.93;;;;;;;15.90;100.00;101617.50;4859015;29;20092;-77
2023/05/22 07:27:43;;;;;;;21.83;8.68;;;;;;;15.86;100.00;101612.22;4858427;29;20057;-77
2023/05/22 07:30:12;;;;;;;20.50;8.43;;;;;;;15.78;100.00;101613.16;4863263;29;20048;-76
2023/05/22 07:32:40;;;;;;;23.45;8.77;;;;;;;15.76;100.00;101616.72;4828781;29;20529;-77
2023/05/22 07:35:09;;;;;;;23.38;9.73;;;;;;;15.71;100.00;101611.41;4816947;29;20045;-76
2023/05/22 07:37:37;;;;;;;24.80;9.02;;;;;;;15.68;100.00;101611.41;4861961;29;20418;-78
2023/05/22 07:40:06;;;;;;;18.55;9.45;;;;;;;15.65;100.00;101602.56;4857308;29;20060;-75
2023/05/22 07:42:37;;;;;;;16.25;9.40;;;;;;;15.62;100.00;101608.78;4856379;29;20049;-76
2023/05/22 07:45:07;;;;;;;19.50;9.10;;;;;;;15.57;100.00;101610.59;4835019;29;20060;-76
2023/05/22 07:47:34;;;;;;;28.15;9.57;;;;;;;15.53;100.00;101612.38;4855705;29;20052;-76
2023/05/22 07:50:03;;;;;;;29.90;10.60;;;;;;;15.52;100.00;101613.28;4815839;29;20061;-77
2023/05/22 07:52:33;;;;;;;24.40;10.27;;;;;;;15.53;100.00;101623.00;4838758;29;20422;-76
2023/05/22 07:55:01;;;;;;;24.92;9.75;;;;;;;15.53;100.00;101620.34;4842925;29;20055;-77
2023/05/22 07:57:34;;;;;;;23.45;9.65;;;;;;;15.53;100.00;101619.47;4841831;29;20533;-77
2023/05/22 08:00:12;;;;;;;22.98;9.70;;;;;;;15.51;100.00;101614.16;4856570;29;20083;-79
2023/05/22 08:02:40;;;;;;;23.48;10.48;;;;;;;15.49;100.00;101623.03;4878629;29;20080;-77
2023/05/22 08:05:08;;;;;;;25.63;10.27;;;;;;;15.46;100.00;101618.59;4828121;29;22287;-77
2023/05/22 08:07:36;;;;;;;25.58;9.70;;;;;;;15.45;100.00;101624.81;4827193;29;20514;-77
2023/05/22 08:10:11;;;;;;;28.80;9.65;;;;;;;15.47;100.00;101632.78;4859520;29;20052;-77
2023/05/22 08:12:39;;;;;;;28.25;11.07;;;;;;;15.47;100.00;101623.03;4866761;29;20056;-77
2023/05/22 08:15:07;;;;;;;28.40;10.35;;;;;;;15.47;100.00;101619.50;4870455;29;20056;-77
2023/05/22 08:17:35;;;;;;;24.55;9.93;;;;;;;15.49;100.00;101621.25;4862855;29;20045;-77
2023/05/22 08:20:04;;;;;;;22.45;10.35;;;;;;;15.50;100.00;101614.16;4839359;29;20577;-78
2023/05/22 08:22:33;;;;;;;36.63;11.13;;;;;;;15.51;100.00;101603.53;4839156;29;20049;-77
2023/05/22 08:25:00;;;;;;;31.45;10.55;;;;;;;15.54;100.00;101610.63;4868991;29;20162;-77
2023/05/22 08:27:27;;;;;;;21.23;10.82;;;;;;;15.57;100.00;101606.16;4861224;29;20056;-77
2023/05/22 08:29:55;;;;;;;26.67;10.55;;;;;;;15.60;100.00;101598.16;4820848;29;20060;-77
2023/05/22 08:32:23;;;;;;;31.83;11.10;;;;;;;15.65;100.00;101603.47;4849237;29;20872;-77
2023/05/22 08:34:50;;;;;;;32.60;10.90;;;;;;;15.72;100.00;101599.00;4874541;29;20418;-77
2023/05/22 08:37:18;;;;;;;27.58;10.98;;;;;;;15.79;100.00;101598.09;4825198;29;20474;-77
2023/05/22 08:39:45;;;;;;;29.15;10.70;;;;;;;15.85;100.00;101584.75;4855316;29;20056;-77
2023/05/22 08:42:13;;;;;;;20.88;10.48;;;;;;;15.92;100.00;101589.16;4875465;29;20064;-78
2023/05/22 08:44:40;;;;;;;20.33;9.82;;;;;;;15.99;100.00;101595.28;4859024;29;20138;-77
2023/05/22 08:47:12;;;;;;;28.40;10.90;;;;;;;15.98;100.00;101581.13;4877539;29;20106;-77
2023/05/22 08:49:41;;;;;;;21.55;9.52;;;;;;;15.97;100.00;101579.38;4861941;29;20053;-78
2023/05/22 08:52:12;;;;;;;21.05;10.23;;;;;;;16.02;100.00;101581.13;4827846;29;20048;-77
2023/05/22 08:54:43;;;;;;;24.95;10.65;;;;;;;16.01;100.00;101571.34;4858949;29;20071;-77
2023/05/22 08:57:12;;;;;;;24.35;10.23;;;;;;;16.00;100.00;101588.22;4877225;29;20049;-78
2023/05/22 08:59:40;;;;;;;27.25;9.82;;;;;;;15.98;100.00;101580.25;4839080;29;20060;-77
2023/05/22 09:02:08;;;;;;;22.48;10.13;;;;;;;15.94;100.00;101579.38;4848288;29;20048;-77
2023/05/22 09:04:36;;;;;;;24.63;10.52;;;;;;;15.92;100.00;101581.19;4862086;29;20064;-77
2023/05/22 09:07:04;;;;;;;33.83;10.90;;;;;;;15.89;100.00;101575.88;4838289;29;20503;-78
2023/05/22 09:09:36;;;;;;;24.75;10.35;;;;;;;15.89;100.00;101577.66;4848335;29;20056;-77
2023/05/22 09:12:08;;;;;;;27.95;11.70;;;;;;;15.84;100.00;101572.38;4857367;29;20052;-77
2023/05/22 09:14:40;;;;;;;24.88;11.23;;;;;;;15.82;100.00;101574.13;4865392;29;20048;-77
2023/05/22 09:17:10;;;;;;;26.05;10.30;;;;;;;15.83;100.00;101572.38;4857057;29;20060;-77
2023/05/22 09:19:43;;;;;;;30.20;10.80;;;;;;;15.81;100.00;101569.75;4864801;29;20060;-77
2023/05/22 09:22:12;;;;;;;23.20;10.82;;;;;;;15.81;100.00;101571.53;4831422;29;25724;-78
2023/05/22 09:24:43;;;;;;;26.20;9.60;;;;;;;15.81;100.00;101584.81;4857387;29;20068;-78
2023/05/22 09:27:11;;;;;;;26.58;11.70;;;;;;;15.79;100.00;101571.53;4876694;29;20222;-77
2023/05/22 09:29:53;;;;;;;30.23;10.95;;;;;;;15.81;100.00;101580.38;4864458;29;20049;-77
2023/05/22 09:32:21;;;;;;;31.67;10.55;;;;;;;15.81;100.00;101576.84;4864104;29;20410;-77
2023/05/22 09:34:49;;;;;;;27.00;9.88;;;;;;;15.83;100.00;101570.59;4861441;29;20052;-77
2023/05/22 09:37:17;;;;;;;24.65;10.15;;;;;;;15.82;100.00;101567.94;4856229;29;20056;-77
2023/05/22 09:39:46;;;;;;;25.58;11.38;;;;;;;15.82;100.00;101563.50;4823476;29;20052;-77
2023/05/22 09:42:16;;;;;;;28.17;11.82;;;;;;;15.83;100.00;101567.06;4857354;29;20427;-77
2023/05/22 09:44:50;;;;;;;35.25;13.68;;;;;;;15.84;100.00;101564.41;4857475;29;20052;-77
2023/05/22 09:47:17;;;;;;;30.30;11.35;;;;;;;15.83;100.00;101559.97;4854086;29;20088;-77
2023/05/22 09:49:45;;;;;;;28.77;11.18;;;;;;;15.84;100.00;101564.41;4853849;29;20052;-77
2023/05/22 09:52:15;;;;;;;34.13;11.68;;;;;;;15.83;100.00;101559.97;4850256;29;20049;-77
2023/05/22 09:54:56;;;;;;;26.35;11.63;;;;;;;15.83;100.00;101559.97;4828523;29;20052;-77
2023/05/22 09:57:25;;;;;;;31.98;12.75;;;;;;;15.85;100.00;101562.63;4835687;29;20522;-77
2023/05/22 09:59:56;;;;;;;33.75;13.90;;;;;;;15.88;100.00;101563.50;4866199;29;20076;-77
2023/05/22 10:02:25;;;;;;;27.10;12.88;;;;;;;15.87;100.00;101569.69;4853880;29;20056;-77
2023/05/22 10:04:56;;;;;;;32.42;13.23;;;;;;;15.88;100.00;101573.22;4849387;29;20053;-78
2023/05/22 10:07:26;;;;;;;30.60;12.88;;;;;;;15.90;100.00;101571.47;4859238;29;20466;-77
2023/05/22 10:10:02;;;;;;;27.33;12.30;;;;;;;15.92;100.00;101573.19;4854950;29;20418;-77
2023/05/22 10:12:41;;;;;;;28.52;12.05;;;;;;;15.95;100.00;101556.34;4856061;29;20416;-77
2023/05/22 10:15:10;;;;;;;29.58;12.20;;;;;;;15.98;100.00;101553.66;4886602;29;20052;-77
2023/05/22 10:17:39;;;;;;;22.83;12.73;;;;;;;15.97;100.00;101560.78;4850338;29;20055;-77
2023/05/22 10:20:09;;;;;;;23.45;12.63;;;;;;;16.00;100.00;101553.66;4840996;29;20052;-77
2023/05/22 10:22:37;;;;;;;23.95;13.38;;;;;;;16.03;100.00;101550.97;4859479;29;20059;-77
2023/05/22 10:25:05;;;;;;;19.65;12.60;;;;;;;16.05;100.00;101547.41;4824016;29;20076;-77
2023/05/22 10:27:37;;;;;;;17.45;12.88;;;;;;;16.10;100.00;101544.69;4850808;29;20049;-77
2023/05/22 10:30:19;;;;;;;18.63;13.50;;;;;;;16.19;100.00;101541.97;4859952;29;20057;-77
2023/05/22 10:33:12;;;;;;;20.23;13.57;;;;;;;16.29;100.00;101542.75;4864425;29;20056;-77
2023/05/22 10:35:56;;;;;;;18.48;12.70;;;;;;;16.40;100.00;101543.53;4864748;29;20049;-76
2023/05/22 10:38:30;;;;;;;18.77;12.35;;;;;;;16.47;100.00;101531.06;4882447;29;20694;-76
2023/05/22 10:40:58;;;;;;;21.55;13.30;;;;;;;16.54;100.00;101523.00;4827159;29;20061;-78
2023/05/22 10:43:30;;;;;;;16.38;13.65;;;;;;;16.63;100.00;101518.47;4879027;29;20045;-77
2023/05/22 10:46:02;;;;;;;18.85;12.27;;;;;;;16.74;100.00;101513.91;4869309;29;20234;-78
2023/05/22 10:48:44;;;;;;;15.60;12.98;;;;;;;16.82;100.00;101513.81;4855058;29;20087;-78
2023/05/22 10:51:19;;;;;;;16.75;12.57;;;;;;;16.86;100.00;101513.81;4856554;29;20060;-78
2023/05/22 10:53:52;;;;;;;21.70;12.38;;;;;;;16.93;100.00;101506.59;4868392;29;20048;-78
2023/05/22 10:56:20;;;;;;;17.80;12.77;;;;;;;16.98;100.00;101510.09;4845985;29;20059;-78
2023/05/22 10:59:03;;;;;;;14.20;12.25;;;;;;;16.99;100.00;101519.84;4854451;29;20057;-78
2023/05/22 11:01:36;;;;;;;21.92;13.07;;;;;;;16.99;100.00;101517.16;4877788;29;20056;-78
2023/05/22 11:04:31;;;;;;;18.80;13.18;;;;;;;17.08;100.00;101519.72;4873744;29;20073;-78
2023/05/22 11:07:03;;;;;;;16.65;12.70;;;;;;;17.18;100.00;101514.28;4837583;29;20079;-78
2023/05/22 11:09:42;;;;;;;15.93;11.85;;;;;;;17.23;100.00;101515.09;4868200;29;20095;-78
2023/05/22 11:12:26;;;;;;;23.83;13.20;;;;;;;17.33;100.00;101508.72;4851618;29;20045;-78
2023/05/22 11:14:55;;;;;;;13.68;12.27;;;;;;;17.39;100.00;101502.44;4856971;29;21799;-78
2023/05/22 11:17:43;;;;;;;15.32;12.60;;;;;;;17.46;100.00;101504.09;4866458;29;20068;-78
2023/05/22 11:20:17;;;;;;;17.48;12.60;;;;;;;17.58;100.00;101500.38;4860638;29;20052;-76